createdAt,value
2018-09-18T00:00:30.792Z,90.00
2018-09-18T00:02:59.644Z,89.50
2018-09-18T00:05:28.632Z,90.00
2018-09-18T00:07:57.576Z,89.80
2018-09-18T00:10:26.344Z,90.10
2018-09-18T00:12:56.242Z,90.50
2018-09-18T00:15:25.095Z,90.30
2018-09-18T00:17:54.291Z,90.10
2018-09-18T00:20:23.274Z,90.30
2018-09-18T00:22:52.104Z,90.10
2018-09-18T00:25:20.951Z,90.20
2018-09-18T00:27:50.544Z,90.20
2018-09-18T00:30:19.531Z,90.20
2018-09-18T00:32:48.325Z,90.40
2018-09-18T00:35:17.166Z,90.50
2018-09-18T00:37:46.098Z,90.40
2018-09-18T00:40:14.885Z,90.50
2018-09-18T00:42:43.867Z,90.50
2018-09-18T00:45:12.825Z,90.60
2018-09-18T00:47:41.800Z,90.50
2018-09-18T00:50:11.110Z,90.70
2018-09-18T00:52:40.022Z,90.60
2018-09-18T00:55:08.841Z,90.70
2018-09-18T00:57:37.903Z,90.60
2018-09-18T01:00:07.018Z,90.70
2018-09-18T01:02:35.826Z,91.00
2018-09-18T01:05:04.816Z,90.90
2018-09-18T01:07:33.912Z,91.40
2018-09-18T01:10:03.106Z,91.50
2018-09-18T01:12:33.032Z,91.30
2018-09-18T01:15:01.977Z,91.30
2018-09-18T01:17:30.835Z,91.20
2018-09-18T01:19:59.839Z,91.10
2018-09-18T01:22:28.812Z,91.20
2018-09-18T01:24:57.680Z,91.40
2018-09-18T01:27:26.466Z,91.30
2018-09-18T01:29:55.377Z,91.40
2018-09-18T01:32:24.319Z,91.40
2018-09-18T01:34:53.173Z,91.30
2018-09-18T01:37:22.055Z,91.30
2018-09-18T01:39:50.959Z,91.40
2018-09-18T01:42:19.920Z,91.40
2018-09-18T01:44:48.844Z,91.50
2018-09-18T01:47:17.771Z,91.60
2018-09-18T01:49:46.629Z,91.60
2018-09-18T01:52:15.897Z,91.50
2018-09-18T01:54:44.740Z,91.50
2018-09-18T01:57:13.673Z,91.50
2018-09-18T01:59:42.620Z,91.40
2018-09-18T02:02:11.404Z,91.50
2018-09-18T02:04:40.366Z,91.70
2018-09-18T02:07:09.306Z,91.70
2018-09-18T02:09:38.228Z,91.70
2018-09-18T02:12:07.118Z,91.70
2018-09-18T02:14:36.114Z,91.70
2018-09-18T02:17:05.219Z,91.80
2018-09-18T02:19:34.147Z,91.90
2018-09-18T02:22:03.082Z,91.90
2018-09-18T02:24:32.115Z,91.90
2018-09-18T02:27:01.200Z,92.00
2018-09-18T02:29:30.129Z,91.90
2018-09-18T02:31:58.975Z,92.00
2018-09-18T02:34:27.905Z,92.00
2018-09-18T02:36:56.768Z,92.00
2018-09-18T02:39:25.724Z,91.90
2018-09-18T02:41:54.712Z,91.90
2018-09-18T02:44:23.700Z,92.30
2018-09-18T02:46:52.651Z,92.20
2018-09-18T02:49:23.535Z,92.20
2018-09-18T02:51:52.359Z,92.10
2018-09-18T02:54:21.322Z,92.10
2018-09-18T02:56:50.225Z,92.20
2018-09-18T02:59:19.157Z,92.40
2018-09-18T03:01:48.163Z,92.40
2018-09-18T03:04:17.010Z,92.40
2018-09-18T03:06:45.967Z,92.80
2018-09-18T03:09:14.968Z,92.40
2018-09-18T03:11:43.937Z,92.40
2018-09-18T03:14:12.864Z,92.30
2018-09-18T03:16:41.782Z,92.40
2018-09-18T03:19:10.709Z,92.40
2018-09-18T03:21:39.548Z,92.60
2018-09-18T03:24:08.899Z,92.50
2018-09-18T03:26:38.759Z,92.60
2018-09-18T03:29:07.797Z,92.70
2018-09-18T03:31:36.740Z,92.70
2018-09-18T03:34:05.803Z,92.80
2018-09-18T03:36:35.124Z,92.90
2018-09-18T03:39:05.073Z,92.80
2018-09-18T03:41:34.152Z,92.70
2018-09-18T03:44:03.237Z,92.80
2018-09-18T03:46:32.487Z,92.60
2018-09-18T03:49:01.338Z,92.60
2018-09-18T03:51:30.217Z,92.70
2018-09-18T03:54:01.006Z,92.90
2018-09-18T03:56:29.926Z,93.00
2018-09-18T03:58:58.890Z,93.10
2018-09-18T04:01:27.861Z,93.00
2018-09-18T04:03:56.787Z,92.80
2018-09-18T04:06:25.736Z,92.80
2018-09-18T04:08:54.603Z,93.00
2018-09-18T04:11:23.536Z,93.20
2018-09-18T04:13:52.840Z,93.30
2018-09-18T04:16:21.784Z,93.10
2018-09-18T04:18:50.752Z,93.20
2018-09-18T04:21:19.741Z,93.20
2018-09-18T04:23:48.564Z,93.40
2018-09-18T04:26:17.504Z,93.40
2018-09-18T04:28:46.568Z,93.20
2018-09-18T04:31:15.559Z,93.30
2018-09-18T04:33:44.612Z,93.40
2018-09-18T04:36:13.578Z,93.30
2018-09-18T04:38:42.488Z,93.20
2018-09-18T04:41:11.484Z,93.30
2018-09-18T04:43:44.141Z,93.30
2018-09-18T04:46:13.396Z,93.30
2018-09-18T04:48:42.447Z,93.30
2018-09-18T04:51:11.650Z,93.50
2018-09-18T04:53:40.728Z,93.50
2018-09-18T04:56:09.634Z,93.60
2018-09-18T04:58:38.664Z,93.80
2018-09-18T05:01:07.930Z,93.70
2018-09-18T05:03:37.064Z,93.80
2018-09-18T05:06:06.107Z,93.70
2018-09-18T05:08:35.016Z,93.70
2018-09-18T05:11:03.960Z,93.80
2018-09-18T05:13:32.981Z,93.70
2018-09-18T05:16:02.416Z,93.60
2018-09-18T05:35:48.461Z,93.50
2018-09-18T05:38:17.409Z,93.60
2018-09-18T05:40:46.334Z,93.50
2018-09-18T05:43:15.237Z,93.30
2018-09-18T05:45:44.168Z,93.20
2018-09-18T05:48:14.010Z,93.20
2018-09-18T05:50:43.341Z,92.90
2018-09-18T05:53:12.663Z,92.80
2018-09-18T05:55:41.617Z,92.50
2018-09-18T05:58:10.677Z,92.10
2018-09-18T06:00:40.625Z,92.00
2018-09-18T06:03:09.732Z,91.70
2018-09-18T06:05:38.698Z,91.60
2018-09-18T06:08:07.671Z,91.60
2018-09-18T06:10:36.604Z,91.50
2018-09-18T06:13:05.557Z,91.50
2018-09-18T06:15:34.433Z,91.40
2018-09-18T06:18:03.388Z,91.10
2018-09-18T06:20:32.385Z,90.80
2018-09-18T06:23:01.339Z,90.40
2018-09-18T06:25:30.368Z,90.10
2018-09-18T06:27:59.352Z,90.10
2018-09-18T06:30:28.276Z,89.90
2018-09-18T06:32:57.192Z,89.80
2018-09-18T06:35:26.097Z,89.10
2018-09-18T06:37:55.172Z,88.80
2018-09-18T06:40:24.085Z,88.50
2018-09-18T06:42:53.130Z,88.50
2018-09-18T06:45:22.091Z,88.20
2018-09-18T06:47:52.718Z,87.60
2018-09-18T06:50:21.720Z,86.90
2018-09-18T06:52:50.676Z,86.70
2018-09-18T06:55:19.617Z,86.30
2018-09-18T06:57:48.600Z,85.50
2018-09-18T07:00:17.597Z,85.60
2018-09-18T07:02:46.575Z,85.40
2018-09-18T07:05:15.537Z,85.30
2018-09-18T07:07:44.613Z,85.10
2018-09-18T07:10:13.517Z,84.70
2018-09-18T07:12:42.517Z,84.30
2018-09-18T07:15:11.518Z,84.30
2018-09-18T07:17:40.395Z,84.20
2018-09-18T07:20:09.469Z,84.00
2018-09-18T07:22:38.530Z,83.40
2018-09-18T07:25:07.595Z,82.10
2018-09-18T07:27:36.621Z,81.50
2018-09-18T07:30:06.490Z,79.80
2018-09-18T07:32:35.397Z,77.50
2018-09-18T07:35:04.708Z,76.40
2018-09-18T07:37:33.792Z,76.20
2018-09-18T07:40:03.062Z,74.70
2018-09-18T07:42:32.161Z,75.10
2018-09-18T07:45:01.278Z,74.80
2018-09-18T07:47:30.298Z,73.90
2018-09-18T07:49:59.295Z,72.50
2018-09-18T07:52:28.265Z,71.40
2018-09-18T07:54:57.338Z,70.50
2018-09-18T07:57:26.407Z,70.50
2018-09-18T07:59:55.871Z,69.50
2018-09-18T08:02:24.985Z,69.80
2018-09-18T08:04:53.975Z,70.00
2018-09-18T08:07:22.908Z,68.60
2018-09-18T08:09:51.813Z,66.00
2018-09-18T08:12:21.211Z,64.10
2018-09-18T08:14:50.145Z,61.80
2018-09-18T08:17:19.183Z,59.70
2018-09-18T08:19:48.205Z,58.50
2018-09-18T08:22:17.132Z,58.00
2018-09-18T08:24:46.129Z,56.60
2018-09-18T08:27:15.181Z,55.90
2018-09-18T08:29:44.166Z,54.70
2018-09-18T08:32:13.201Z,54.90
2018-09-18T08:34:42.193Z,55.60
2018-09-18T08:37:11.185Z,56.70
2018-09-18T08:39:40.236Z,56.40
2018-09-18T08:42:09.351Z,56.40
2018-09-18T08:44:38.368Z,57.30
2018-09-18T08:47:07.532Z,56.80
2018-09-18T08:49:36.598Z,56.50
2018-09-18T08:52:05.761Z,56.70
2018-09-18T08:54:34.693Z,56.50
2018-09-18T08:57:04.241Z,56.80
2018-09-18T08:59:33.255Z,57.60
2018-09-18T09:02:02.244Z,58.00
2018-09-18T09:04:31.824Z,59.10
2018-09-18T09:07:00.871Z,58.80
2018-09-18T09:09:31.057Z,59.40
2018-09-18T09:12:00.294Z,59.70
2018-09-18T09:14:29.354Z,60.40
2018-09-18T09:16:58.391Z,61.00
2018-09-18T09:19:27.459Z,61.10
2018-09-18T09:21:56.405Z,59.30
2018-09-18T09:24:25.460Z,60.30
2018-09-18T09:26:54.623Z,59.50
2018-09-18T09:29:23.640Z,58.40
2018-09-18T09:31:52.737Z,58.10
2018-09-18T09:34:21.626Z,58.30
2018-09-18T09:36:50.838Z,57.70
2018-09-18T09:39:19.806Z,57.50
2018-09-18T09:41:49.158Z,57.60
2018-09-18T09:44:18.160Z,58.00
2018-09-18T09:46:47.134Z,57.00
2018-09-18T09:49:16.121Z,57.00
2018-09-18T09:51:44.868Z,56.70
2018-09-18T09:54:13.781Z,58.00
2018-09-18T09:56:42.806Z,58.20
2018-09-18T09:59:11.823Z,58.30
2018-09-18T10:01:46.089Z,58.90
2018-09-18T10:04:15.308Z,58.10
2018-09-18T10:06:44.468Z,58.50
2018-09-18T10:09:13.922Z,58.30
2018-09-18T10:11:42.861Z,57.40
2018-09-18T10:14:11.784Z,56.60
2018-09-18T10:16:40.700Z,56.80
2018-09-18T10:19:09.995Z,56.90
2018-09-18T10:21:39.004Z,56.40
2018-09-18T10:24:08.590Z,56.70
2018-09-18T10:26:37.635Z,56.40
2018-09-18T10:29:06.612Z,55.10
2018-09-18T10:31:35.522Z,53.70
2018-09-18T10:34:04.505Z,54.00
2018-09-18T10:36:33.563Z,53.10
2018-09-18T10:39:02.646Z,53.50
2018-09-18T10:41:31.909Z,53.50
2018-09-18T10:44:00.760Z,52.50
2018-09-18T10:46:29.546Z,51.90
2018-09-18T10:48:58.824Z,52.50
2018-09-18T10:51:27.833Z,51.80
2018-09-18T10:53:56.831Z,51.00
2018-09-18T10:56:25.717Z,49.10
2018-09-18T10:58:54.648Z,48.20
2018-09-18T11:01:23.716Z,46.60
2018-09-18T11:03:52.598Z,44.50
2018-09-18T11:06:21.579Z,43.50
2018-09-18T11:08:50.729Z,44.70
2018-09-18T11:11:19.711Z,43.70
2018-09-18T11:13:48.934Z,43.50
2018-09-18T11:16:17.846Z,44.70
2018-09-18T11:18:47.117Z,46.10
2018-09-18T11:21:16.269Z,47.30
2018-09-18T11:23:45.072Z,47.90
2018-09-18T11:26:14.684Z,47.00
2018-09-18T11:28:43.822Z,47.70
2018-09-18T11:31:13.177Z,48.60
2018-09-18T11:33:42.392Z,50.10
2018-09-18T11:36:11.547Z,51.20
2018-09-18T11:38:40.903Z,51.60
2018-09-18T11:41:10.326Z,49.30
2018-09-18T11:43:39.390Z,49.00
2018-09-18T11:46:08.621Z,49.10
2018-09-18T11:48:37.638Z,49.70
2018-09-18T11:51:06.943Z,50.50
2018-09-18T11:53:35.990Z,51.90
2018-09-18T11:56:05.637Z,51.20
2018-09-18T11:58:34.961Z,51.00
2018-09-18T12:01:04.485Z,52.20
2018-09-18T12:03:33.562Z,52.50
2018-09-18T12:06:02.569Z,52.30
2018-09-18T12:08:31.831Z,52.70
2018-09-18T12:11:00.829Z,53.10
2018-09-18T12:13:29.877Z,52.40
2018-09-18T12:15:58.928Z,52.20
2018-09-18T12:18:28.205Z,51.30
2018-09-18T12:20:57.186Z,52.10
2018-09-18T12:23:26.563Z,53.90
2018-09-18T12:25:55.601Z,54.60
2018-09-18T12:28:25.221Z,53.40
2018-09-18T12:30:54.365Z,53.60
2018-09-18T12:33:23.424Z,53.70
2018-09-18T12:35:53.404Z,53.10
2018-09-18T12:38:22.857Z,53.50
2018-09-18T12:40:52.397Z,54.50
2018-09-18T12:43:22.249Z,53.20
2018-09-18T12:45:51.140Z,53.00
2018-09-18T12:48:20.089Z,54.30
2018-09-18T12:50:49.035Z,54.10
2018-09-18T12:53:17.823Z,52.60
2018-09-18T12:55:47.865Z,53.50
2018-09-18T12:58:16.962Z,53.80
2018-09-18T13:00:46.864Z,52.80
2018-09-18T13:03:15.836Z,54.10
2018-09-18T13:05:44.721Z,54.20
2018-09-18T13:08:13.766Z,54.10
2018-09-18T13:10:42.661Z,54.30
2018-09-18T13:13:11.681Z,54.50
2018-09-18T13:15:40.694Z,54.10
2018-09-18T13:18:09.723Z,53.20
2018-09-18T13:20:38.708Z,53.90
2018-09-18T13:23:07.686Z,54.50
2018-09-18T13:25:36.701Z,54.60
2018-09-18T13:28:05.892Z,54.80
2018-09-18T13:30:35.054Z,54.90
2018-09-18T13:33:04.411Z,55.10
2018-09-18T13:35:33.466Z,54.50
2018-09-18T13:38:02.506Z,54.80
2018-09-18T13:40:31.607Z,54.30
2018-09-18T13:43:00.524Z,54.20
2018-09-18T13:45:29.562Z,53.40
2018-09-18T13:47:58.481Z,53.40
2018-09-18T13:50:31.010Z,54.10
2018-09-18T13:53:00.795Z,53.80
2018-09-18T13:55:29.846Z,53.60
2018-09-18T13:57:59.128Z,52.80
2018-09-18T14:00:28.024Z,53.40
2018-09-18T14:02:58.446Z,54.00
2018-09-18T14:05:28.632Z,54.20
2018-09-18T14:07:57.596Z,53.40
2018-09-18T14:10:26.590Z,53.30
2018-09-18T14:12:55.453Z,53.90
2018-09-18T14:15:24.411Z,53.90
2018-09-18T14:17:58.987Z,54.80
2018-09-18T14:20:31.236Z,54.80
2018-09-18T14:23:00.204Z,55.20
2018-09-18T14:25:29.163Z,54.00
2018-09-18T14:27:58.045Z,54.30
2018-09-18T14:30:27.098Z,55.10
2018-09-18T14:32:56.173Z,55.30
2018-09-18T14:35:25.188Z,55.60
2018-09-18T14:37:54.338Z,55.80
2018-09-18T14:40:23.330Z,55.60
2018-09-18T14:42:52.356Z,55.00
2018-09-18T14:45:21.489Z,55.10
2018-09-18T14:47:51.672Z,55.30
2018-09-18T14:50:20.652Z,55.50
2018-09-18T14:52:49.617Z,56.10
2018-09-18T14:55:19.833Z,55.70
2018-09-18T14:57:49.824Z,56.00
2018-09-18T15:00:19.025Z,55.70
2018-09-18T15:02:48.095Z,56.10
2018-09-18T15:05:17.662Z,56.70
2018-09-18T15:07:46.720Z,56.00
2018-09-18T15:10:15.862Z,56.30
2018-09-18T15:12:44.826Z,56.20
2018-09-18T15:15:14.097Z,55.40
2018-09-18T15:17:43.296Z,55.40
2018-09-18T15:20:12.224Z,55.10
2018-09-18T15:22:41.177Z,55.20
2018-09-18T15:25:10.151Z,55.50
2018-09-18T15:27:40.232Z,55.50
2018-09-18T15:30:09.147Z,55.60
2018-09-18T15:32:37.558Z,54.90
2018-09-18T15:35:05.314Z,54.20
2018-09-18T15:37:32.989Z,53.50
2018-09-18T15:40:00.537Z,53.80
2018-09-18T15:42:28.208Z,53.90
2018-09-18T15:44:56.770Z,53.10
2018-09-18T15:47:25.524Z,53.80
2018-09-18T15:49:53.125Z,53.90
2018-09-18T15:52:20.773Z,53.70
2018-09-18T15:54:48.384Z,53.30
2018-09-18T15:57:16.010Z,53.30
2018-09-18T15:59:43.588Z,53.50
2018-09-18T16:02:11.323Z,53.70
2018-09-18T16:04:38.845Z,53.20
2018-09-18T16:07:06.522Z,52.90
2018-09-18T16:09:34.319Z,53.10
2018-09-18T16:12:02.864Z,53.10
2018-09-18T16:14:31.552Z,52.50
2018-09-18T16:16:59.174Z,52.20
2018-09-18T16:19:26.864Z,52.30
2018-09-18T16:24:26.897Z,53.60
2018-09-18T16:26:54.874Z,54.50
2018-09-18T16:29:23.196Z,54.90
2018-09-18T16:31:52.133Z,55.40
2018-09-18T16:34:21.291Z,55.80
2018-09-18T16:36:50.703Z,56.20
2018-09-18T16:39:19.694Z,56.50
2018-09-18T16:41:48.585Z,57.00
2018-09-18T16:44:17.668Z,56.90
2018-09-18T16:46:46.678Z,57.20
2018-09-18T16:49:15.726Z,57.70
2018-09-18T16:51:44.767Z,57.90
2018-09-18T16:54:13.782Z,57.90
2018-09-18T16:56:42.853Z,58.20
2018-09-18T16:59:11.949Z,58.50
2018-09-18T17:01:40.899Z,58.80
2018-09-18T17:04:09.847Z,59.00
2018-09-18T17:06:38.871Z,59.00
2018-09-18T17:09:08.420Z,59.30
2018-09-18T17:11:37.848Z,59.50
2018-09-18T17:14:07.110Z,59.80
2018-09-18T17:16:36.725Z,60.10
2018-09-18T17:19:05.834Z,60.00
2018-09-18T17:21:34.856Z,60.10
2018-09-18T17:24:04.013Z,59.50
2018-09-18T17:26:33.050Z,59.30
2018-09-18T17:29:02.511Z,58.80
2018-09-18T17:31:31.449Z,59.40
2018-09-18T17:34:00.544Z,59.00
2018-09-18T17:36:29.686Z,59.30
2018-09-18T17:38:58.678Z,59.50
2018-09-18T17:41:27.599Z,59.60
2018-09-18T17:43:56.530Z,60.10
2018-09-18T17:46:25.463Z,59.90
2018-09-18T17:48:54.680Z,61.90
2018-09-18T17:51:24.557Z,62.70
2018-09-18T17:53:53.780Z,63.40
2018-09-18T17:56:23.140Z,64.30
2018-09-18T17:58:52.014Z,65.00
2018-09-18T18:01:24.119Z,66.20
2018-09-18T18:03:53.032Z,67.90
2018-09-18T18:06:28.150Z,69.70
2018-09-18T18:08:57.157Z,70.40
2018-09-18T18:11:26.270Z,70.80
2018-09-18T18:13:55.448Z,72.40
2018-09-18T18:16:24.407Z,72.30
2018-09-18T18:18:53.544Z,72.60
2018-09-18T18:21:22.675Z,73.70
2018-09-18T18:23:51.518Z,74.30
2018-09-18T18:26:20.523Z,75.70
2018-09-18T18:28:49.454Z,75.60
2018-09-18T18:31:18.495Z,76.20
2018-09-18T18:33:47.991Z,76.90
2018-09-18T18:36:17.105Z,76.40
2018-09-18T18:38:46.183Z,76.50
2018-09-18T18:41:15.344Z,77.00
2018-09-18T18:43:49.980Z,77.50
2018-09-18T18:46:18.994Z,77.00
2018-09-18T18:48:48.054Z,77.60
2018-09-18T18:51:17.293Z,78.40
2018-09-18T18:53:46.327Z,77.70
2018-09-18T18:56:15.433Z,78.60
2018-09-18T18:58:44.904Z,78.20
2018-09-18T19:01:14.103Z,79.30
2018-09-18T19:03:43.698Z,79.90
2018-09-18T19:06:12.897Z,79.10
2018-09-18T19:08:42.032Z,80.40
2018-09-18T19:11:11.134Z,80.80
2018-09-18T19:13:40.448Z,81.30
2018-09-18T19:16:09.591Z,82.10
2018-09-18T19:18:38.691Z,82.00
2018-09-18T19:21:08.283Z,81.90
2018-09-18T19:23:41.172Z,81.70
2018-09-18T19:26:10.227Z,82.10
2018-09-18T19:28:39.297Z,81.90
2018-09-18T19:31:12.226Z,82.00
2018-09-18T19:33:41.817Z,82.20
2018-09-18T19:36:10.858Z,81.30
2018-09-18T19:38:39.828Z,81.80
2018-09-18T19:41:08.990Z,81.40
2018-09-18T19:43:37.897Z,80.10
2018-09-18T19:46:06.915Z,80.40
2018-09-18T19:48:35.927Z,79.70
2018-09-18T19:51:05.377Z,80.40
2018-09-18T19:53:34.374Z,80.30
2018-09-18T19:56:03.247Z,79.70
2018-09-18T19:58:32.256Z,79.90
2018-09-18T20:01:01.756Z,79.80
2018-09-18T20:03:30.969Z,79.70
2018-09-18T20:06:00.211Z,79.30
2018-09-18T20:08:29.509Z,80.10
2018-09-18T20:10:58.585Z,79.80
2018-09-18T20:13:27.758Z,80.10
2018-09-18T20:15:56.755Z,80.00
2018-09-18T20:18:25.775Z,79.40
2018-09-18T20:20:55.074Z,80.00
2018-09-18T20:23:24.096Z,79.20
2018-09-18T20:25:53.340Z,79.10
2018-09-18T20:28:22.337Z,78.90
2018-09-18T20:30:51.422Z,78.80
2018-09-18T20:33:20.677Z,79.10
2018-09-18T20:35:49.745Z,80.10
2018-09-18T20:38:18.722Z,79.80
2018-09-18T20:40:47.651Z,80.10
2018-09-18T20:43:17.089Z,79.90
2018-09-18T20:45:45.988Z,80.20
2018-09-18T20:48:14.866Z,80.60
2018-09-18T20:50:43.810Z,80.70
2018-09-18T20:53:12.751Z,81.00
2018-09-18T20:55:47.200Z,81.00
2018-09-18T20:58:16.438Z,81.00
2018-09-18T21:00:47.359Z,80.80
2018-09-18T21:03:16.655Z,80.50
2018-09-18T21:05:45.778Z,80.50
2018-09-18T21:08:14.940Z,80.30
2018-09-18T21:10:44.029Z,80.00
2018-09-18T21:13:13.055Z,79.90
2018-09-18T21:15:43.183Z,79.80
2018-09-18T21:18:12.165Z,80.00
2018-09-18T21:20:41.186Z,79.50
2018-09-18T21:23:10.432Z,79.30
2018-09-18T21:26:11.945Z,79.10
2018-09-18T21:28:40.912Z,79.20
2018-09-18T21:31:10.095Z,79.40
2018-09-18T21:33:40.293Z,79.10
2018-09-18T21:36:09.249Z,79.20
2018-09-18T21:38:38.213Z,79.60
2018-09-18T21:41:07.621Z,79.30
2018-09-18T21:43:36.594Z,79.10
2018-09-18T21:46:06.616Z,78.60
2018-09-18T21:48:35.616Z,78.60
2018-09-18T21:51:04.919Z,78.90
2018-09-18T21:53:34.057Z,79.10
2018-09-18T21:56:03.039Z,78.90
2018-09-18T21:58:32.108Z,78.60
2018-09-18T22:01:04.919Z,78.30
2018-09-18T22:03:34.482Z,78.20
2018-09-18T22:06:03.943Z,77.90
2018-09-18T22:08:32.875Z,77.80
2018-09-18T22:11:01.833Z,77.10
2018-09-18T22:13:30.789Z,76.50
2018-09-18T22:15:59.735Z,76.50
2018-09-18T22:18:28.734Z,76.40
2018-09-18T22:20:57.641Z,76.00
2018-09-18T22:23:26.679Z,75.80
2018-09-18T22:25:55.721Z,74.60
2018-09-18T22:28:24.811Z,75.10
2018-09-18T22:30:53.768Z,74.20
2018-09-18T22:33:22.886Z,74.70
2018-09-18T22:35:51.840Z,74.10
2018-09-18T22:38:20.715Z,74.20
2018-09-18T22:40:49.625Z,75.20
2018-09-18T22:43:18.496Z,76.10
2018-09-18T22:45:47.537Z,76.90
2018-09-18T22:48:16.404Z,77.60
2018-09-18T22:50:46.108Z,78.40
2018-09-18T22:53:15.107Z,78.50
2018-09-18T22:55:43.986Z,81.40
2018-09-18T22:58:12.866Z,82.50
2018-09-18T23:00:41.808Z,80.80
2018-09-18T23:03:10.790Z,83.30
2018-09-18T23:05:39.654Z,83.90
2018-09-18T23:08:08.803Z,85.10
2018-09-18T23:10:37.749Z,83.80
2018-09-18T23:13:06.620Z,80.30
2018-09-18T23:15:35.491Z,79.80
2018-09-18T23:18:04.501Z,80.50
2018-09-18T23:20:33.374Z,80.60
2018-09-18T23:23:02.254Z,79.20
2018-09-18T23:25:31.149Z,79.50
2018-09-18T23:28:00.446Z,79.20
2018-09-18T23:30:29.346Z,80.20
2018-09-18T23:32:58.180Z,81.20
2018-09-18T23:35:27.122Z,81.90
2018-09-18T23:37:56.018Z,81.60
2018-09-18T23:40:24.936Z,81.70
2018-09-18T23:42:53.775Z,82.40
2018-09-18T23:45:22.637Z,81.40
2018-09-18T23:47:51.482Z,81.30
2018-09-18T23:50:20.365Z,81.60
2018-09-18T23:52:49.400Z,81.60
2018-09-18T23:55:18.301Z,82.90
2018-09-18T23:57:47.131Z,82.50
